createdAt,value
2022-09-27T00:00:19.605Z,0
2022-09-27T00:01:20.320Z,0
2022-09-27T00:02:19.417Z,0
2022-09-27T00:03:19.287Z,0
2022-09-27T00:04:19.167Z,0
2022-09-27T00:05:19.168Z,0
2022-09-27T00:06:19.448Z,0
2022-09-27T00:07:19.462Z,0
2022-09-27T00:08:19.494Z,0
2022-09-27T00:09:19.667Z,0
2022-09-27T00:10:18.748Z,0
2022-09-27T00:11:19.308Z,0
2022-09-27T00:12:19.553Z,0
2022-09-27T00:13:19.319Z,0
2022-09-27T00:14:19.363Z,0
2022-09-27T00:15:19.683Z,0
2022-09-27T00:16:20.197Z,0
2022-09-27T00:17:19.996Z,0
2022-09-27T00:18:19.419Z,0
2022-09-27T00:19:20.398Z,0
2022-09-27T00:20:19.745Z,0
2022-09-27T00:21:19.458Z,0
2022-09-27T00:22:19.744Z,0
2022-09-27T00:23:19.499Z,0
2022-09-27T00:24:19.516Z,0
2022-09-27T00:25:19.538Z,0
2022-09-27T00:26:19.798Z,0
2022-09-27T00:27:20.168Z,0
2022-09-27T00:28:19.594Z,0
2022-09-27T00:29:19.626Z,0
2022-09-27T00:30:19.684Z,0
2022-09-27T00:31:20.251Z,0
2022-09-27T00:32:20.279Z,0
2022-09-27T00:33:20.289Z,0
2022-09-27T00:34:19.709Z,0
2022-09-27T00:35:20.226Z,0
2022-09-27T00:36:20.262Z,0
2022-09-27T00:37:20.042Z,0
2022-09-27T00:38:19.822Z,0
2022-09-27T00:39:20.419Z,0
2022-09-27T00:40:26.150Z,0
2022-09-27T00:41:20.007Z,0
2022-09-27T00:42:20.120Z,0
2022-09-27T00:43:20.394Z,0
2022-09-27T00:44:19.886Z,0
2022-09-27T00:45:20.450Z,0
2022-09-27T00:46:20.685Z,0
2022-09-27T00:47:20.196Z,0
2022-09-27T00:48:20.659Z,0
2022-09-27T00:49:20.569Z,0
2022-09-27T00:50:20.010Z,0
2022-09-27T00:51:20.516Z,0
2022-09-27T00:52:20.305Z,0
2022-09-27T00:53:20.307Z,0
2022-09-27T00:54:20.071Z,0
2022-09-27T00:55:20.343Z,0
2022-09-27T00:56:20.127Z,0
2022-09-27T00:57:20.620Z,0
2022-09-27T00:58:20.660Z,0
2022-09-27T00:59:20.654Z,0
2022-09-27T01:00:20.186Z,0
2022-09-27T01:01:20.460Z,0
2022-09-27T01:02:20.878Z,0
2022-09-27T01:03:20.747Z,0
2022-09-27T01:04:20.489Z,0
2022-09-27T01:05:20.623Z,0
2022-09-27T01:06:20.805Z,0
2022-09-27T01:07:20.292Z,0
2022-09-27T01:08:20.831Z,0
2022-09-27T01:09:20.876Z,0
2022-09-27T01:10:20.632Z,0
2022-09-27T01:11:20.640Z,0
2022-09-27T01:12:20.124Z,0
2022-09-27T01:13:20.416Z,0
2022-09-27T01:14:20.438Z,0
2022-09-27T01:15:20.743Z,0
2022-09-27T01:16:21.427Z,0
2022-09-27T01:17:20.995Z,0
2022-09-27T01:18:21.032Z,0
2022-09-27T01:19:21.197Z,0
2022-09-27T01:20:20.537Z,0
2022-09-27T01:21:21.151Z,0
2022-09-27T01:22:20.840Z,0
2022-09-27T01:23:20.849Z,0
2022-09-27T01:24:20.614Z,0
2022-09-27T01:25:20.896Z,0
2022-09-27T01:26:20.899Z,0
2022-09-27T01:27:20.652Z,0
2022-09-27T01:28:20.934Z,0
2022-09-27T01:29:21.418Z,0
2022-09-27T01:30:20.735Z,0
2022-09-27T01:31:21.847Z,0
2022-09-27T01:32:21.012Z,0
2022-09-27T01:33:20.514Z,0
2022-09-27T01:34:21.367Z,0
2022-09-27T01:35:21.070Z,0
2022-09-27T01:36:21.371Z,0
2022-09-27T01:37:21.231Z,0
2022-09-27T01:38:20.864Z,0
2022-09-27T01:39:21.203Z,0
2022-09-27T01:40:21.674Z,0
2022-09-27T01:41:20.922Z,0
2022-09-27T01:42:28.100Z,0
2022-09-27T01:43:21.238Z,0
2022-09-27T01:44:21.490Z,0
2022-09-27T01:45:21.263Z,0
2022-09-27T01:46:21.895Z,0
2022-09-27T01:47:21.057Z,0
2022-09-27T01:48:21.243Z,0
2022-09-27T01:49:21.437Z,0
2022-09-27T01:50:21.390Z,0
2022-09-27T01:51:21.372Z,0
2022-09-27T01:52:21.387Z,0
2022-09-27T01:53:21.744Z,0
2022-09-27T01:54:21.417Z,0
2022-09-27T01:55:21.568Z,0
2022-09-27T01:56:21.456Z,0
2022-09-27T01:57:21.723Z,0
2022-09-27T01:58:21.490Z,0
2022-09-27T01:59:21.700Z,0
2022-09-27T02:00:21.798Z,0
2022-09-27T02:01:21.953Z,0
2022-09-27T02:02:21.818Z,0
2022-09-27T02:03:21.349Z,0
2022-09-27T02:04:21.603Z,0
2022-09-27T02:05:21.097Z,0
2022-09-27T02:06:22.422Z,0
2022-09-27T02:07:21.915Z,0
2022-09-27T02:08:21.676Z,0
2022-09-27T02:09:22.375Z,0
2022-09-27T02:10:21.180Z,0
2022-09-27T02:11:21.475Z,0
2022-09-27T02:12:21.225Z,0
2022-09-27T02:13:21.509Z,0
2022-09-27T02:14:21.789Z,0
2022-09-27T02:15:22.086Z,0
2022-09-27T02:16:21.967Z,0
2022-09-27T02:17:21.868Z,0
2022-09-27T02:18:21.585Z,0
2022-09-27T02:19:22.081Z,0
2022-09-27T02:20:21.641Z,0
2022-09-27T02:21:21.409Z,0
2022-09-27T02:22:22.007Z,0
2022-09-27T02:23:21.684Z,0
2022-09-27T02:24:22.214Z,0
2022-09-27T02:25:22.336Z,0
2022-09-27T02:26:21.739Z,0
2022-09-27T02:27:21.505Z,0
2022-09-27T02:28:22.023Z,0
2022-09-27T02:29:22.516Z,0
2022-09-27T02:30:21.717Z,0
2022-09-27T02:31:22.033Z,0
2022-09-27T02:32:22.512Z,0
2022-09-27T02:33:22.276Z,0
2022-09-27T02:34:22.195Z,0
2022-09-27T02:35:22.185Z,0
2022-09-27T02:36:21.715Z,0
2022-09-27T02:37:21.793Z,0
2022-09-27T02:38:22.296Z,0
2022-09-27T02:39:22.057Z,0
2022-09-27T02:40:22.697Z,0
2022-09-27T02:41:22.425Z,0
2022-09-27T02:42:22.025Z,0
2022-09-27T02:43:22.311Z,0
2022-09-27T02:44:22.312Z,0
2022-09-27T02:45:22.599Z,0
2022-09-27T02:46:22.826Z,0
2022-09-27T02:47:22.410Z,0
2022-09-27T02:48:22.790Z,0
2022-09-27T02:49:22.798Z,0
2022-09-27T02:50:21.911Z,0
2022-09-27T02:51:22.200Z,0
2022-09-27T02:52:22.208Z,0
2022-09-27T02:53:22.514Z,0
2022-09-27T02:54:22.537Z,0
2022-09-27T02:55:22.244Z,0
2022-09-27T02:56:22.271Z,0
2022-09-27T02:57:22.896Z,0
2022-09-27T02:58:22.575Z,0
2022-09-27T02:59:22.840Z,0
2022-09-27T03:00:22.626Z,0
2022-09-27T03:01:23.285Z,0
2022-09-27T03:02:23.963Z,0
2022-09-27T03:03:23.034Z,0
2022-09-27T03:04:22.933Z,0
2022-09-27T03:05:22.675Z,0
2022-09-27T03:06:22.976Z,0
2022-09-27T03:07:22.240Z,0
2022-09-27T03:08:22.490Z,0
2022-09-27T03:09:23.022Z,0
2022-09-27T03:10:23.068Z,0
2022-09-27T03:11:22.797Z,0
2022-09-27T03:12:22.559Z,0
2022-09-27T03:13:23.260Z,0
2022-09-27T03:14:22.340Z,0
2022-09-27T03:15:23.275Z,0
2022-09-27T03:16:23.266Z,0
2022-09-27T03:17:23.311Z,0
2022-09-27T03:18:23.276Z,0
2022-09-27T03:19:22.970Z,0
2022-09-27T03:20:22.752Z,0
2022-09-27T03:21:22.708Z,0
2022-09-27T03:22:23.262Z,0
2022-09-27T03:23:23.294Z,0
2022-09-27T03:24:23.045Z,0
2022-09-27T03:25:23.313Z,0
2022-09-27T03:26:23.355Z,0
2022-09-27T03:27:23.092Z,0
2022-09-27T03:28:23.126Z,0
2022-09-27T03:29:23.869Z,0
2022-09-27T03:30:23.146Z,0
2022-09-27T03:31:23.607Z,0
2022-09-27T03:32:23.341Z,0
2022-09-27T03:33:22.943Z,0
2022-09-27T03:34:22.739Z,0
2022-09-27T03:35:23.488Z,0
2022-09-27T03:36:23.303Z,0
2022-09-27T03:37:22.770Z,0
2022-09-27T03:38:23.292Z,0
2022-09-27T03:39:23.716Z,0
2022-09-27T03:40:24.085Z,0
2022-09-27T03:41:22.847Z,0
2022-09-27T03:42:22.872Z,0
2022-09-27T03:43:23.126Z,0
2022-09-27T03:44:23.384Z,0
2022-09-27T03:45:23.749Z,0
2022-09-27T03:46:24.054Z,0
2022-09-27T03:47:23.444Z,0
2022-09-27T03:48:29.548Z,0
2022-09-27T03:49:23.850Z,0
2022-09-27T03:50:23.347Z,0
2022-09-27T03:51:23.523Z,0
2022-09-27T03:52:23.331Z,0
2022-09-27T03:53:23.350Z,0
2022-09-27T03:54:23.339Z,0
2022-09-27T03:55:23.875Z,0
2022-09-27T03:56:23.363Z,0
2022-09-27T03:57:23.366Z,0
2022-09-27T03:58:23.419Z,0
2022-09-27T03:59:23.788Z,0
2022-09-27T04:00:23.949Z,0
2022-09-27T04:01:24.280Z,0
2022-09-27T04:02:24.322Z,0
2022-09-27T04:03:23.479Z,0
2022-09-27T04:04:24.014Z,0
2022-09-27T04:05:23.779Z,0
2022-09-27T04:06:23.546Z,0
2022-09-27T04:07:23.845Z,0
2022-09-27T04:08:23.817Z,0
2022-09-27T04:09:23.982Z,0
2022-09-27T04:10:23.875Z,0
2022-09-27T04:11:23.927Z,0
2022-09-27T04:12:23.911Z,0
2022-09-27T04:13:24.166Z,0
2022-09-27T04:14:23.974Z,0
2022-09-27T04:15:23.960Z,0
2022-09-27T04:16:24.597Z,0
2022-09-27T04:17:24.142Z,0
2022-09-27T04:18:24.265Z,0
2022-09-27T04:19:23.893Z,0
2022-09-27T04:20:23.781Z,0
2022-09-27T04:21:24.338Z,0
2022-09-27T04:22:24.075Z,0
2022-09-27T04:23:30.004Z,0
2022-09-27T04:24:24.382Z,0
2022-09-27T04:25:23.881Z,0
2022-09-27T04:26:23.883Z,0
2022-09-27T04:27:24.475Z,0
2022-09-27T04:28:24.442Z,0
2022-09-27T04:29:24.716Z,0
2022-09-27T04:30:23.997Z,0
2022-09-27T04:31:25.055Z,0
2022-09-27T04:32:24.268Z,0
2022-09-27T04:33:24.638Z,0
2022-09-27T04:34:24.561Z,0
2022-09-27T04:35:24.057Z,0
2022-09-27T04:36:24.074Z,0
2022-09-27T04:37:24.606Z,0
2022-09-27T04:38:24.690Z,0
2022-09-27T04:39:24.960Z,0
2022-09-27T04:40:24.866Z,0
2022-09-27T04:41:24.165Z,0
2022-09-27T04:42:24.698Z,0
2022-09-27T04:43:24.482Z,0
2022-09-27T04:44:24.475Z,0
2022-09-27T04:45:23.986Z,0
2022-09-27T04:46:24.975Z,0
2022-09-27T04:47:24.297Z,0
2022-09-27T04:48:24.937Z,0
2022-09-27T04:49:27.461Z,0
2022-09-27T04:50:24.325Z,0
2022-09-27T04:51:24.714Z,0
2022-09-27T04:52:24.616Z,0
2022-09-27T04:53:24.628Z,0
2022-09-27T04:54:24.431Z,0
2022-09-27T04:55:24.670Z,0
2022-09-27T04:56:24.423Z,0
2022-09-27T04:57:24.182Z,0
2022-09-27T04:58:24.487Z,0
2022-09-27T04:59:25.564Z,0
2022-09-27T05:00:24.776Z,0
2022-09-27T05:01:25.246Z,0
2022-09-27T05:02:25.305Z,0
2022-09-27T05:03:25.070Z,0
2022-09-27T05:04:25.180Z,0
2022-09-27T05:05:25.195Z,0
2022-09-27T05:06:24.671Z,0
2022-09-27T05:07:25.146Z,0
2022-09-27T05:08:24.655Z,0
2022-09-27T05:09:24.950Z,0
2022-09-27T05:10:24.693Z,0
2022-09-27T05:11:25.205Z,0
2022-09-27T05:12:24.968Z,0
2022-09-27T05:13:25.263Z,0
2022-09-27T05:15:25.057Z,0
2022-09-27T05:16:25.572Z,0
2022-09-27T05:17:25.361Z,0
2022-09-27T05:18:25.166Z,0
2022-09-27T05:19:25.468Z,0
2022-09-27T05:20:24.626Z,0
2022-09-27T05:21:25.462Z,0
2022-09-27T05:22:25.468Z,0
2022-09-27T05:23:25.180Z,0
2022-09-27T05:24:25.185Z,0
2022-09-27T05:25:24.946Z,0
2022-09-27T05:26:24.962Z,0
2022-09-27T05:27:25.269Z,0
2022-09-27T05:28:25.255Z,0
2022-09-27T05:29:25.382Z,0
2022-09-27T05:30:25.309Z,0
2022-09-27T05:31:26.121Z,0
2022-09-27T05:32:24.835Z,0
2022-09-27T05:33:25.358Z,0
2022-09-27T05:34:25.390Z,0
2022-09-27T05:35:25.394Z,0
2022-09-27T05:36:25.147Z,0
2022-09-27T05:37:25.497Z,0
2022-09-27T05:38:25.199Z,0
2022-09-27T05:39:25.662Z,0
2022-09-27T05:40:49.418Z,0
2022-09-27T05:41:26.314Z,0
2022-09-27T05:42:25.238Z,0
2022-09-27T05:43:25.608Z,0
2022-09-27T05:44:25.418Z,0
2022-09-27T05:45:25.055Z,0
2022-09-27T05:46:26.046Z,0
2022-09-27T05:47:26.133Z,0
2022-09-27T05:48:25.711Z,0
2022-09-27T05:49:25.984Z,0
2022-09-27T05:50:25.673Z,5
2022-09-27T05:51:25.410Z,5
2022-09-27T05:52:30.519Z,5
2022-09-27T05:53:25.496Z,5
2022-09-27T05:54:25.684Z,5
2022-09-27T05:55:25.234Z,0
2022-09-27T05:56:25.237Z,0
2022-09-27T05:57:25.530Z,0
2022-09-27T05:58:25.979Z,5
2022-09-27T05:59:25.570Z,5
2022-09-27T06:00:25.846Z,5
2022-09-27T06:01:25.962Z,5
2022-09-27T06:02:26.101Z,5
2022-09-27T06:03:26.037Z,5
2022-09-27T06:04:25.918Z,10
2022-09-27T06:05:26.174Z,10
2022-09-27T06:06:26.083Z,15
2022-09-27T06:07:25.963Z,15
2022-09-27T06:08:26.295Z,15
2022-09-27T06:09:25.989Z,15
2022-09-27T06:10:26.012Z,15
2022-09-27T06:11:25.522Z,15
2022-09-27T06:12:26.137Z,15
2022-09-27T06:13:25.804Z,20
2022-09-27T06:14:26.094Z,20
2022-09-27T06:15:26.365Z,15
2022-09-27T06:16:26.458Z,15
2022-09-27T06:17:26.396Z,15
2022-09-27T06:18:25.895Z,15
2022-09-27T06:19:26.652Z,15
2022-09-27T06:20:26.509Z,15
2022-09-27T06:21:25.955Z,15
2022-09-27T06:22:25.736Z,15
2022-09-27T06:23:25.770Z,15
2022-09-27T06:24:26.312Z,15
2022-09-27T06:25:26.573Z,15
2022-09-27T06:26:26.559Z,20
2022-09-27T06:27:26.558Z,20
2022-09-27T06:28:26.331Z,20
2022-09-27T06:29:26.469Z,20
2022-09-27T06:30:30.128Z,20
2022-09-27T06:31:26.387Z,25
2022-09-27T06:32:26.411Z,25
2022-09-27T06:33:26.682Z,25
2022-09-27T06:34:25.818Z,25
2022-09-27T06:35:26.756Z,25
2022-09-27T06:36:26.211Z,25
2022-09-27T06:37:26.767Z,25
2022-09-27T06:38:26.801Z,25
2022-09-27T06:39:26.419Z,25
2022-09-27T06:40:27.335Z,25
2022-09-27T06:41:26.849Z,25
2022-09-27T06:42:26.337Z,20
2022-09-27T06:43:26.392Z,15
2022-09-27T06:44:26.109Z,10
2022-09-27T06:45:26.375Z,10
2022-09-27T06:46:26.809Z,15
2022-09-27T06:47:26.682Z,10
2022-09-27T06:48:26.494Z,10
2022-09-27T06:49:27.171Z,5
2022-09-27T06:50:26.787Z,5
2022-09-27T06:51:27.036Z,10
2022-09-27T06:52:26.261Z,10
2022-09-27T06:53:26.790Z,15
2022-09-27T06:54:27.083Z,20
2022-09-27T06:55:26.840Z,20
2022-09-27T06:56:27.156Z,20
2022-09-27T06:57:26.898Z,20
2022-09-27T06:58:26.859Z,20
2022-09-27T06:59:27.157Z,20
2022-09-27T07:00:27.136Z,20
2022-09-27T07:01:27.091Z,25
2022-09-27T07:02:27.634Z,25
2022-09-27T07:03:30.911Z,25
2022-09-27T07:04:27.004Z,25
2022-09-27T07:05:27.276Z,25
2022-09-27T07:06:27.013Z,25
2022-09-27T07:07:27.051Z,25
2022-09-27T07:08:27.055Z,25
2022-09-27T07:09:26.946Z,20
2022-09-27T07:10:27.408Z,20
2022-09-27T07:11:27.381Z,20
2022-09-27T07:12:27.426Z,20
2022-09-27T07:13:27.203Z,20
2022-09-27T07:14:27.416Z,15
2022-09-27T07:15:27.242Z,15
2022-09-27T07:16:27.385Z,20
2022-09-27T07:17:26.718Z,25
2022-09-27T07:18:27.244Z,20
2022-09-27T07:19:27.272Z,20
2022-09-27T07:20:27.842Z,20
2022-09-27T07:21:27.036Z,15
2022-09-27T07:22:27.081Z,20
2022-09-27T07:23:27.341Z,15
2022-09-27T07:24:27.588Z,15
2022-09-27T07:25:26.857Z,15
2022-09-27T07:26:26.916Z,20
2022-09-27T07:27:27.444Z,25
2022-09-27T07:28:31.717Z,20
2022-09-27T07:29:27.456Z,25
2022-09-27T07:30:27.674Z,25
2022-09-27T07:31:27.827Z,30
2022-09-27T07:32:27.485Z,35
2022-09-27T07:33:27.642Z,35
2022-09-27T07:34:27.510Z,25
2022-09-27T07:35:27.548Z,25
2022-09-27T07:36:27.830Z,35
2022-09-27T07:37:27.851Z,35
2022-09-27T07:38:27.358Z,40
2022-09-27T07:39:27.653Z,45
2022-09-27T07:40:28.227Z,45
2022-09-27T07:41:27.918Z,65
2022-09-27T07:42:27.695Z,85
2022-09-27T07:43:27.680Z,80
2022-09-27T07:44:28.072Z,70
2022-09-27T07:45:28.019Z,45
2022-09-27T07:46:27.704Z,35
2022-09-27T07:47:28.025Z,35
2022-09-27T07:48:28.295Z,35
2022-09-27T07:49:27.801Z,45
2022-09-27T07:50:28.078Z,50
2022-09-27T07:51:27.829Z,45
2022-09-27T07:52:27.860Z,45
2022-09-27T07:53:27.874Z,45
2022-09-27T07:54:28.140Z,40
2022-09-27T07:55:27.932Z,55
2022-09-27T07:56:27.706Z,55
2022-09-27T07:57:28.221Z,50
2022-09-27T07:58:27.743Z,50
2022-09-27T07:59:27.720Z,50
2022-09-27T08:00:28.089Z,55
2022-09-27T08:01:28.241Z,65
2022-09-27T08:02:28.639Z,55
2022-09-27T08:03:28.306Z,50
2022-09-27T08:04:28.340Z,35
2022-09-27T08:05:27.568Z,45
2022-09-27T08:06:27.862Z,55
2022-09-27T08:07:27.606Z,55
2022-09-27T08:08:27.887Z,55
2022-09-27T08:09:27.911Z,65
2022-09-27T08:10:28.276Z,85
2022-09-27T08:11:28.226Z,95
2022-09-27T08:12:27.706Z,115
2022-09-27T08:13:28.256Z,80
2022-09-27T08:14:28.062Z,55
2022-09-27T08:15:28.277Z,45
2022-09-27T08:16:28.604Z,50
2022-09-27T08:17:28.338Z,45
2022-09-27T08:18:28.340Z,55
2022-09-27T08:19:28.126Z,50
2022-09-27T08:20:28.519Z,50
2022-09-27T08:21:28.142Z,55
2022-09-27T08:22:28.392Z,60
2022-09-27T08:23:28.565Z,70
2022-09-27T08:24:28.188Z,75
2022-09-27T08:25:28.510Z,75
2022-09-27T08:26:28.498Z,75
2022-09-27T08:27:28.270Z,75
2022-09-27T08:28:28.257Z,70
2022-09-27T08:29:28.590Z,65
2022-09-27T08:30:28.354Z,75
2022-09-27T08:31:28.873Z,75
2022-09-27T08:32:33.013Z,75
2022-09-27T08:33:40.581Z,70
2022-09-27T08:34:28.872Z,65
2022-09-27T08:35:28.122Z,55
2022-09-27T08:36:29.017Z,55
2022-09-27T08:37:28.595Z,65
2022-09-27T08:38:28.974Z,45
2022-09-27T08:39:28.205Z,45
2022-09-27T08:40:29.170Z,60
2022-09-27T08:41:28.847Z,100
2022-09-27T08:42:28.610Z,110
2022-09-27T08:43:28.730Z,90
2022-09-27T08:44:29.051Z,105
2022-09-27T08:45:28.645Z,105
2022-09-27T08:46:28.646Z,95
2022-09-27T08:47:28.631Z,50
2022-09-27T08:48:29.049Z,40
2022-09-27T08:49:29.235Z,45
2022-09-27T08:50:29.218Z,60
2022-09-27T08:51:28.952Z,65
2022-09-27T08:52:28.969Z,70
2022-09-27T08:53:28.975Z,50
2022-09-27T08:54:28.725Z,60
2022-09-27T08:55:28.747Z,75
2022-09-27T08:56:28.626Z,75
2022-09-27T08:57:29.067Z,85
2022-09-27T08:58:29.338Z,90
2022-09-27T08:59:28.855Z,90
2022-09-27T09:00:28.954Z,80
2022-09-27T09:01:35.461Z,95
2022-09-27T09:02:29.400Z,125
2022-09-27T09:03:29.171Z,95
2022-09-27T09:04:29.221Z,80
2022-09-27T09:05:28.952Z,65
2022-09-27T09:06:29.241Z,45
2022-09-27T09:07:29.247Z,25
2022-09-27T09:08:29.262Z,15
2022-09-27T09:09:29.065Z,25
2022-09-27T09:10:29.602Z,25
2022-09-27T09:11:30.271Z,45
2022-09-27T09:12:29.346Z,50
2022-09-27T09:13:29.352Z,50
2022-09-27T09:14:29.831Z,60
2022-09-27T09:15:29.693Z,80
2022-09-27T09:16:30.464Z,95
2022-09-27T09:17:29.510Z,120
2022-09-27T09:18:29.426Z,95
2022-09-27T09:19:29.720Z,55
2022-09-27T09:20:29.886Z,60
2022-09-27T09:21:29.512Z,60
2022-09-27T09:22:29.295Z,85
2022-09-27T09:23:29.572Z,100
2022-09-27T09:24:29.813Z,105
2022-09-27T09:25:29.330Z,85
2022-09-27T09:26:29.879Z,65
2022-09-27T09:27:29.630Z,65
2022-09-27T09:28:29.361Z,70
2022-09-27T09:29:29.396Z,60
2022-09-27T09:30:29.699Z,50
2022-09-27T09:31:30.169Z,60
2022-09-27T09:32:29.183Z,60
2022-09-27T09:33:29.236Z,50
2022-09-27T09:34:29.500Z,50
2022-09-27T09:35:29.756Z,45
2022-09-27T09:36:30.102Z,45
2022-09-27T09:37:30.080Z,40
2022-09-27T09:38:29.566Z,45
2022-09-27T09:39:29.315Z,60
2022-09-27T09:40:30.509Z,70
2022-09-27T09:41:29.604Z,105
2022-09-27T09:42:29.635Z,95
2022-09-27T09:43:29.910Z,90
2022-09-27T09:44:29.941Z,75
2022-09-27T09:45:30.416Z,80
2022-09-27T09:46:29.967Z,70
2022-09-27T09:47:30.304Z,85
2022-09-27T09:48:29.501Z,95
2022-09-27T09:49:30.070Z,105
2022-09-27T09:50:29.850Z,105
2022-09-27T09:51:29.814Z,75
2022-09-27T09:52:30.150Z,60
2022-09-27T09:53:29.875Z,75
2022-09-27T09:54:30.371Z,75
2022-09-27T09:55:29.612Z,80
2022-09-27T09:56:29.894Z,90
2022-09-27T09:57:29.916Z,90
2022-09-27T09:58:29.677Z,90
2022-09-27T09:59:29.948Z,70
2022-09-27T10:00:30.337Z,85
2022-09-27T10:01:30.635Z,70
2022-09-27T10:02:29.889Z,105
2022-09-27T10:03:30.579Z,105
2022-09-27T10:04:29.788Z,90
2022-09-27T10:05:30.097Z,105
2022-09-27T10:06:30.085Z,95
2022-09-27T10:07:30.095Z,75
2022-09-27T10:08:30.454Z,120
2022-09-27T10:09:30.425Z,155
2022-09-27T10:10:30.485Z,125
2022-09-27T10:11:30.425Z,120
2022-09-27T10:12:30.463Z,115
2022-09-27T10:13:30.733Z,105
2022-09-27T10:14:30.242Z,130
2022-09-27T10:15:30.519Z,135
2022-09-27T10:16:30.282Z,150
2022-09-27T10:17:30.802Z,145
2022-09-27T10:18:30.620Z,125
2022-09-27T10:19:30.652Z,100
2022-09-27T10:20:30.348Z,120
2022-09-27T10:21:30.919Z,125
2022-09-27T10:22:30.376Z,120
2022-09-27T10:23:30.548Z,110
2022-09-27T10:24:31.980Z,80
2022-09-27T10:25:30.983Z,50
2022-09-27T10:26:30.484Z,40
2022-09-27T10:27:30.241Z,30
2022-09-27T10:28:30.503Z,30
2022-09-27T10:29:35.009Z,30
2022-09-27T10:30:30.554Z,30
2022-09-27T10:31:30.836Z,25
2022-09-27T10:32:30.826Z,20
2022-09-27T10:33:30.855Z,20
2022-09-27T10:34:30.876Z,25
2022-09-27T10:35:33.720Z,25
2022-09-27T10:36:30.945Z,20
2022-09-27T10:37:30.981Z,15
2022-09-27T10:38:30.948Z,15
2022-09-27T10:39:30.778Z,15
2022-09-27T10:40:31.309Z,10
2022-09-27T10:41:31.316Z,15
2022-09-27T10:42:31.030Z,20
2022-09-27T10:43:36.764Z,50
2022-09-27T10:44:30.804Z,65
2022-09-27T10:45:31.359Z,85
2022-09-27T10:46:31.246Z,95
2022-09-27T10:47:31.215Z,110
2022-09-27T10:48:31.508Z,85
2022-09-27T10:49:31.003Z,55
2022-09-27T10:51:03.726Z,75
2022-09-27T10:51:31.228Z,80
2022-09-27T10:52:30.979Z,85
2022-09-27T10:53:31.285Z,80
2022-09-27T10:54:31.253Z,70
2022-09-27T10:55:31.526Z,65
2022-09-27T10:56:31.366Z,60
2022-09-27T10:57:31.081Z,50
2022-09-27T10:58:31.328Z,40
2022-09-27T10:59:31.098Z,30
2022-09-27T11:00:31.366Z,30
2022-09-27T11:01:31.405Z,30
2022-09-27T11:02:31.146Z,30
2022-09-27T11:03:31.668Z,30
2022-09-27T11:04:31.551Z,30
2022-09-27T11:05:31.709Z,25
2022-09-27T11:06:31.332Z,20
2022-09-27T11:07:31.271Z,15
2022-09-27T11:08:31.767Z,15
2022-09-27T11:09:31.940Z,20
2022-09-27T11:10:37.318Z,30
2022-09-27T11:11:31.342Z,50
2022-09-27T11:12:31.890Z,60
2022-09-27T11:13:31.900Z,65
2022-09-27T11:14:31.886Z,85
2022-09-27T11:15:31.395Z,105
2022-09-27T11:16:32.137Z,115
2022-09-27T11:17:31.163Z,110
2022-09-27T11:18:31.705Z,115
2022-09-27T11:19:32.022Z,125
2022-09-27T11:20:31.489Z,115
2022-09-27T11:21:31.509Z,100
2022-09-27T11:22:31.550Z,90
2022-09-27T11:23:31.995Z,90
2022-09-27T11:24:31.304Z,130
2022-09-27T11:25:37.036Z,105
2022-09-27T11:26:31.657Z,115
2022-09-27T11:27:31.646Z,115
2022-09-27T11:28:31.974Z,105
2022-09-27T11:29:31.945Z,110
2022-09-27T11:30:31.935Z,100
2022-09-27T11:31:32.135Z,115
2022-09-27T11:32:31.974Z,105
2022-09-27T11:33:32.011Z,85
2022-09-27T11:34:31.754Z,65
2022-09-27T11:35:32.287Z,70
2022-09-27T11:36:31.786Z,75
2022-09-27T11:37:32.332Z,55
2022-09-27T11:39:06.689Z,35
2022-09-27T11:39:31.592Z,35
2022-09-27T11:40:32.642Z,30
2022-09-27T11:41:32.436Z,35
2022-09-27T11:42:32.422Z,35
2022-09-27T11:43:31.674Z,35
2022-09-27T11:44:32.529Z,45
2022-09-27T11:46:42.034Z,30
2022-09-27T11:46:52.590Z,35
2022-09-27T11:47:51.831Z,65
2022-09-27T11:48:51.447Z,65
2022-09-27T11:49:51.199Z,65
2022-09-27T11:50:51.470Z,75
2022-09-27T11:51:51.762Z,90
2022-09-27T11:52:51.768Z,95
2022-09-27T11:53:51.800Z,95
2022-09-27T11:54:52.130Z,90
2022-09-27T11:55:51.832Z,80
2022-09-27T11:56:51.961Z,65
2022-09-27T11:57:51.608Z,75
2022-09-27T11:58:51.885Z,95
2022-09-27T11:59:51.716Z,95
2022-09-27T12:00:52.192Z,65
2022-09-27T12:01:52.005Z,70
2022-09-27T12:02:52.367Z,85
2022-09-27T12:03:51.720Z,85
2022-09-27T12:04:51.748Z,75
2022-09-27T12:06:07.900Z,75
2022-09-27T12:06:51.827Z,65
2022-09-27T12:07:51.797Z,50
2022-09-27T12:08:52.330Z,65
2022-09-27T12:09:52.103Z,110
2022-09-27T12:10:52.396Z,135
2022-09-27T12:11:52.418Z,140
2022-09-27T12:12:51.934Z,130
2022-09-27T12:13:52.431Z,115
2022-09-27T12:14:52.194Z,135
2022-09-27T12:15:52.885Z,105
2022-09-27T12:16:52.518Z,145
2022-09-27T12:17:52.523Z,145
2022-09-27T12:18:58.174Z,135
2022-09-27T12:19:52.289Z,115
2022-09-27T12:20:52.063Z,120
2022-09-27T12:21:52.584Z,125
2022-09-27T12:23:09.343Z,110
2022-09-27T12:23:53.017Z,100
2022-09-27T12:24:52.376Z,80
2022-09-27T12:25:52.731Z,65
2022-09-27T12:26:52.701Z,60
2022-09-27T12:27:52.172Z,70
2022-09-27T12:28:51.966Z,75
2022-09-27T12:29:52.229Z,65
2022-09-27T12:31:11.039Z,80
2022-09-27T12:31:52.901Z,90
2022-09-27T12:32:52.573Z,60
2022-09-27T12:33:52.863Z,45
2022-09-27T12:34:52.588Z,45
2022-09-27T12:35:52.594Z,45
2022-09-27T12:36:52.609Z,45
2022-09-27T12:37:52.387Z,35
2022-09-27T12:38:52.153Z,35
2022-09-27T12:39:52.662Z,35
2022-09-27T12:40:53.184Z,40
2022-09-27T12:41:52.721Z,45
2022-09-27T12:42:53.091Z,45
2022-09-27T12:43:57.098Z,45
2022-09-27T12:44:59.074Z,45
2022-09-27T12:45:52.792Z,55
2022-09-27T12:46:53.431Z,65
2022-09-27T12:47:52.851Z,75
2022-09-27T12:48:53.127Z,90
2022-09-27T12:49:53.474Z,95
2022-09-27T12:50:52.626Z,85
2022-09-27T12:51:52.387Z,95
2022-09-27T12:52:53.173Z,95
2022-09-27T12:53:52.668Z,75
2022-09-27T12:54:52.171Z,70
2022-09-27T12:55:53.079Z,55
2022-09-27T12:56:52.992Z,55
2022-09-27T12:57:52.995Z,50
2022-09-27T12:58:53.314Z,60
2022-09-27T12:59:53.313Z,60
2022-09-27T13:00:53.345Z,60
2022-09-27T13:01:53.884Z,60
2022-09-27T13:03:30.034Z,55
2022-09-27T13:03:53.113Z,60
2022-09-27T13:04:53.338Z,65
2022-09-27T13:05:53.414Z,60
2022-09-27T13:06:52.910Z,60
2022-09-27T13:07:53.192Z,60
2022-09-27T13:08:58.796Z,60
2022-09-27T13:09:52.983Z,85
2022-09-27T13:10:53.255Z,105
2022-09-27T13:11:53.007Z,105
2022-09-27T13:12:53.308Z,110
2022-09-27T13:13:52.587Z,115
2022-09-27T13:14:53.618Z,130
2022-09-27T13:15:53.665Z,150
2022-09-27T13:16:53.629Z,155
2022-09-27T13:17:53.443Z,150
2022-09-27T13:18:53.463Z,145
2022-09-27T13:19:53.443Z,135
2022-09-27T13:20:53.489Z,120
2022-09-27T13:21:53.463Z,105
2022-09-27T13:22:53.126Z,95
2022-09-27T13:23:53.546Z,90
2022-09-27T13:24:53.521Z,80
2022-09-27T13:25:59.200Z,60
2022-09-27T13:26:53.560Z,55
2022-09-27T13:27:53.579Z,50
2022-09-27T13:28:53.341Z,45
2022-09-27T13:29:53.611Z,50
2022-09-27T13:30:54.054Z,75
2022-09-27T13:31:54.290Z,120
2022-09-27T13:32:53.941Z,140
2022-09-27T13:33:53.490Z,150
2022-09-27T13:34:53.783Z,155
2022-09-27T13:35:53.991Z,150
2022-09-27T13:36:54.032Z,150
2022-09-27T13:37:53.502Z,150
2022-09-27T13:38:53.547Z,150
2022-09-27T13:39:53.543Z,160
2022-09-27T13:40:54.329Z,130
2022-09-27T13:41:53.841Z,145
2022-09-27T13:42:53.604Z,115
2022-09-27T13:43:53.888Z,120
2022-09-27T13:44:53.638Z,135
2022-09-27T13:45:53.917Z,140
2022-09-27T13:46:59.759Z,135
2022-09-27T13:47:54.209Z,115
2022-09-27T13:48:53.461Z,90
2022-09-27T13:49:53.994Z,80
2022-09-27T13:50:54.371Z,75
2022-09-27T13:51:54.030Z,70
2022-09-27T13:52:54.064Z,50
2022-09-27T13:53:54.064Z,40
2022-09-27T13:54:54.111Z,45
2022-09-27T13:55:54.379Z,60
2022-09-27T13:56:54.390Z,65
2022-09-27T13:57:54.154Z,70
2022-09-27T13:58:54.444Z,65
2022-09-27T14:00:00.188Z,55
2022-09-27T14:00:54.581Z,40
2022-09-27T14:01:54.516Z,25
2022-09-27T14:02:54.023Z,30
2022-09-27T14:03:54.273Z,35
2022-09-27T14:04:54.544Z,25
2022-09-27T14:05:54.359Z,15
2022-09-27T14:06:54.370Z,25
2022-09-27T14:07:54.089Z,35
2022-09-27T14:08:54.118Z,35
2022-09-27T14:09:54.017Z,35
2022-09-27T14:10:54.149Z,35
2022-09-27T14:11:54.676Z,35
2022-09-27T14:12:53.929Z,35
2022-09-27T14:13:54.470Z,40
2022-09-27T14:14:54.217Z,45
2022-09-27T14:15:54.926Z,50
2022-09-27T14:16:54.513Z,60
2022-09-27T14:17:54.785Z,60
2022-09-27T14:18:54.610Z,55
2022-09-27T14:19:54.331Z,55
2022-09-27T14:20:54.596Z,60
2022-09-27T14:21:54.915Z,70
2022-09-27T14:22:54.946Z,80
2022-09-27T14:23:54.698Z,90
2022-09-27T14:24:54.956Z,90
2022-09-27T14:25:54.693Z,95
2022-09-27T14:26:54.735Z,95